Time;durP1;ratioP1;P1;durP2;ratioP2;P2;SDS_P1;SDS_P2;PMS_P1;PMS_P2;Temp;Humidity;BMP_temperature;BMP_pressure;BME280_temperature;BME280_humidity;BME280_pressure;Samples;Min_cycle;Max_cycle;Signal;HPM_P1;HPM_P2
2023/10/04 00:00:44;;;;;;;2.80;2.10;;;;;;;13.04;100.00;101481.88;5014764;28;20203;-82
2023/10/04 00:03:09;;;;;;;2.83;2.20;;;;;;;13.03;100.00;101482.75;5013150;28;20194;-82
2023/10/04 00:05:36;;;;;;;2.50;2.20;;;;;;;13.00;100.00;101486.22;5010366;28;20243;-82
2023/10/04 00:08:02;;;;;;;2.90;2.20;;;;;;;12.99;100.00;101483.63;5016621;28;20222;-83
2023/10/04 00:10:28;;;;;;;2.50;2.10;;;;;;;12.96;100.00;101485.38;5020306;28;20213;-79
2023/10/04 00:12:54;;;;;;;2.27;1.80;;;;;;;12.95;100.00;101485.34;5020136;28;20208;-82
2023/10/04 00:15:20;;;;;;;4.27;2.40;;;;;;;12.93;100.00;101482.75;5019382;28;20673;-81
2023/10/04 00:17:47;;;;;;;2.57;2.20;;;;;;;12.91;100.00;101481.03;5009726;28;20181;-83
2023/10/04 00:20:16;;;;;;;3.57;2.17;;;;;;;12.88;100.00;101484.47;5015815;28;20219;-80
2023/10/04 00:22:43;;;;;;;3.50;2.20;;;;;;;12.86;100.00;101485.34;5017274;28;20295;-82
2023/10/04 00:25:16;;;;;;;2.20;1.97;;;;;;;12.83;100.00;101486.22;5017909;28;20190;-83
2023/10/04 00:27:42;;;;;;;2.47;2.13;;;;;;;12.84;100.00;101484.47;5013577;28;20216;-84
2023/10/04 00:30:12;;;;;;;2.63;2.00;;;;;;;12.82;100.00;101474.09;5019569;28;20212;-83
2023/10/04 00:32:37;;;;;;;2.23;1.90;;;;;;;12.81;100.00;101480.16;5016104;28;20196;-78
2023/10/04 00:35:06;;;;;;;2.87;2.13;;;;;;;12.80;100.00;101481.88;5016099;28;20615;-78
2023/10/04 00:37:32;;;;;;;3.50;2.37;;;;;;;12.78;100.00;101465.41;5016250;28;20248;-80
2023/10/04 00:39:58;;;;;;;2.80;2.40;;;;;;;12.75;100.00;101472.34;5022801;28;20207;-80
2023/10/04 00:42:24;;;;;;;2.30;2.10;;;;;;;12.74;100.00;101465.41;5019315;28;20416;-83
2023/10/04 00:44:50;;;;;;;3.30;2.00;;;;;;;12.70;100.00;101472.34;5018446;28;20204;-80
2023/10/04 00:47:16;;;;;;;3.33;2.30;;;;;;;12.68;100.00;101471.47;5018789;28;20202;-82
2023/10/04 00:49:45;;;;;;;3.10;2.17;;;;;;;12.64;100.00;101478.41;5021268;28;20203;-82
2023/10/04 00:52:11;;;;;;;2.40;2.10;;;;;;;12.62;100.00;101474.94;5017051;28;20300;-81
2023/10/04 00:54:38;;;;;;;2.53;1.70;;;;;;;12.62;100.00;101474.94;5018467;28;20673;-81
2023/10/04 00:57:08;;;;;;;3.07;1.83;;;;;;;12.63;100.00;101470.59;5049061;28;20196;-83
2023/10/04 00:59:33;;;;;;;2.37;1.90;;;;;;;12.62;100.00;101461.09;5019780;28;20200;-81
2023/10/04 01:01:59;;;;;;;2.57;2.00;;;;;;;12.58;100.00;101462.81;5016675;28;21004;-83
2023/10/04 01:04:25;;;;;;;2.53;2.30;;;;;;;12.55;100.00;101460.22;5020411;28;20239;-80
2023/10/04 01:06:51;;;;;;;3.20;2.00;;;;;;;12.52;100.00;101460.22;5009130;28;20658;-83
2023/10/04 01:09:19;;;;;;;2.57;1.87;;;;;;;12.50;100.00;101472.31;5012108;28;20372;-81
2023/10/04 01:11:46;;;;;;;2.33;2.00;;;;;;;12.46;100.00;101468.84;5013180;28;20203;-79
2023/10/04 01:14:27;;;;;;;3.33;2.03;;;;;;;12.44;100.00;101467.97;5025296;28;20588;-80
2023/10/04 01:16:53;;;;;;;2.83;2.07;;;;;;;12.42;100.00;101472.31;5013929;28;20192;-80
2023/10/04 01:19:20;;;;;;;2.40;1.77;;;;;;;12.42;100.00;101468.81;5010247;28;20177;-81
2023/10/04 01:21:46;;;;;;;2.47;2.03;;;;;;;12.40;100.00;101474.03;5009823;28;20949;-84
2023/10/04 01:24:11;;;;;;;2.57;2.00;;;;;;;12.39;100.00;101476.63;5008751;28;20188;-81
2023/10/04 01:26:38;;;;;;;2.70;2.23;;;;;;;12.34;100.00;101477.47;5012465;28;20254;-80
2023/10/04 01:29:12;;;;;;;2.27;1.90;;;;;;;12.31;100.00;101474.88;5013741;28;20220;-81
2023/10/04 01:31:38;;;;;;;3.07;2.10;;;;;;;12.27;100.00;101472.25;5016893;28;20248;-77
2023/10/04 01:34:05;;;;;;;2.70;2.17;;;;;;;12.23;100.00;101473.09;5016212;28;20645;-82
2023/10/04 01:36:32;;;;;;;2.90;2.10;;;;;;;12.23;100.00;101475.69;5010721;28;20242;-80
2023/10/04 01:38:58;;;;;;;3.80;2.20;;;;;;;12.19;100.00;101478.28;5013977;28;20234;-80
2023/10/04 01:41:24;;;;;;;4.97;2.83;;;;;;;12.16;100.00;101477.41;5018192;28;20679;-80
2023/10/04 01:43:53;;;;;;;3.10;2.43;;;;;;;12.14;100.00;101479.13;5012722;28;20279;-83
2023/10/04 01:46:18;;;;;;;4.37;2.47;;;;;;;12.10;100.00;101472.22;5012655;28;20188;-83
2023/10/04 01:48:44;;;;;;;3.77;2.20;;;;;;;12.08;100.00;101481.72;5034306;28;20250;-77
2023/10/04 01:51:10;;;;;;;3.40;2.60;;;;;;;12.06;100.00;101478.25;5052041;28;20222;-84
2023/10/04 01:53:35;;;;;;;3.03;2.23;;;;;;;12.00;100.00;101477.34;5016283;28;20187;-82
2023/10/04 01:56:04;;;;;;;3.43;2.40;;;;;;;11.97;100.00;101479.88;5018035;28;21036;-80
2023/10/04 01:58:29;;;;;;;3.67;2.27;;;;;;;11.96;100.00;101475.56;5020030;28;20647;-79
2023/10/04 02:01:00;;;;;;;4.50;2.70;;;;;;;11.92;100.00;101475.53;5013909;28;20215;-86
2023/10/04 02:03:26;;;;;;;4.07;2.27;;;;;;;11.96;100.00;101482.50;5011214;28;20192;-80
2023/10/04 02:05:58;;;;;;;2.50;2.13;;;;;;;11.91;100.00;101485.06;5015757;28;20209;-80
2023/10/04 02:08:24;;;;;;;2.83;2.30;;;;;;;11.88;100.00;101485.91;5011289;28;20204;-80
2023/10/04 02:10:51;;;;;;;3.70;2.13;;;;;;;11.85;100.00;101491.09;5014691;28;20213;-83
2023/10/04 02:13:17;;;;;;;3.23;2.40;;;;;;;11.83;100.00;101490.22;5011295;28;20195;-80
2023/10/04 02:15:50;;;;;;;3.83;2.33;;;;;;;11.81;100.00;101486.75;5010658;28;20190;-81
2023/10/04 02:18:16;;;;;;;3.13;2.20;;;;;;;11.79;100.00;101496.25;5013275;28;20184;-82
2023/10/04 02:20:48;;;;;;;2.67;2.30;;;;;;;11.77;100.00;101494.50;5011792;28;20203;-82
2023/10/04 02:23:16;;;;;;;3.07;2.30;;;;;;;11.75;100.00;101491.88;5014585;28;20279;-81
2023/10/04 02:25:41;;;;;;;2.33;1.63;;;;;;;11.74;100.00;101490.16;5016930;28;20229;-83
2023/10/04 02:28:40;;;;;;;4.33;2.63;;;;;;;11.72;100.00;101495.34;5014559;28;20757;-81
2023/10/04 02:31:02;;;;;;;2.63;2.27;;;;;;;11.71;100.00;101498.78;5011441;28;20227;-81
2023/10/04 02:33:32;;;;;;;4.57;2.67;;;;;;;11.69;100.00;101497.06;5007841;28;20527;-81
2023/10/04 02:36:00;;;;;;;3.73;2.43;;;;;;;11.68;100.00;101496.16;5019108;28;20198;-81
2023/10/04 02:38:26;;;;;;;3.13;2.47;;;;;;;11.68;100.00;101501.34;5012678;28;20238;-83
2023/10/04 02:40:55;;;;;;;2.40;2.00;;;;;;;11.68;100.00;101500.50;5015433;28;20207;-84
2023/10/04 02:43:22;;;;;;;3.00;2.10;;;;;;;11.67;100.00;101498.78;5004944;28;20184;-81
2023/10/04 02:45:49;;;;;;;2.93;2.10;;;;;;;11.69;100.00;101497.06;5018178;28;20217;-82
2023/10/04 02:48:14;;;;;;;4.57;2.30;;;;;;;11.68;100.00;101501.34;5008186;28;20203;-80
2023/10/04 02:50:40;;;;;;;2.80;2.13;;;;;;;11.68;100.00;101500.50;5019818;28;20233;-82
2023/10/04 02:53:07;;;;;;;2.53;2.00;;;;;;;11.67;100.00;101506.53;5011315;28;20258;-83
2023/10/04 02:55:32;;;;;;;2.23;1.90;;;;;;;11.66;100.00;101502.22;5014976;28;20194;-79
2023/10/04 02:58:00;;;;;;;3.83;2.23;;;;;;;11.63;100.00;101513.44;5008500;28;20191;-80
2023/10/04 03:00:26;;;;;;;4.00;2.40;;;;;;;11.61;100.00;101506.50;5018348;28;20813;-84
2023/10/04 03:02:53;;;;;;;3.30;2.33;;;;;;;11.59;100.00;101514.28;5003952;28;20278;-82
2023/10/04 03:05:19;;;;;;;3.37;2.37;;;;;;;11.58;100.00;101510.78;5014749;28;20234;-82
2023/10/04 03:07:47;;;;;;;3.60;2.30;;;;;;;11.59;100.00;101511.69;5009548;28;20709;-83
2023/10/04 03:10:19;;;;;;;3.10;2.37;;;;;;;11.57;100.00;101505.63;5013370;28;20234;-81
2023/10/04 03:12:51;;;;;;;3.17;2.27;;;;;;;11.53;100.00;101502.16;5016347;28;20201;-81
2023/10/04 03:15:17;;;;;;;2.23;1.93;;;;;;;11.50;100.00;101504.72;5011186;28;20196;-85
2023/10/04 03:17:42;;;;;;;2.70;2.13;;;;;;;11.48;100.00;101503.81;5012953;28;20213;-79
2023/10/04 03:20:17;;;;;;;3.63;1.90;;;;;;;11.46;100.00;101507.28;5038750;28;20235;-82
2023/10/04 03:22:42;;;;;;;2.20;1.67;;;;;;;11.43;100.00;101503.81;5011666;28;20186;-81
2023/10/04 03:25:10;;;;;;;4.07;2.20;;;;;;;11.42;100.00;101517.63;5010177;28;20196;-82
2023/10/04 03:27:35;;;;;;;2.77;2.00;;;;;;;11.39;100.00;101507.22;5014067;28;20215;-84
2023/10/04 03:30:05;;;;;;;3.90;2.63;;;;;;;11.37;100.00;101514.13;5013344;28;20218;-80
2023/10/04 03:32:30;;;;;;;3.30;2.47;;;;;;;11.34;100.00;101513.22;5016685;28;20187;-83
2023/10/04 03:34:55;;;;;;;3.27;2.50;;;;;;;11.33;100.00;101516.69;5007183;28;20749;-84
2023/10/04 03:37:29;;;;;;;4.27;2.70;;;;;;;11.31;100.00;101520.97;5009098;28;20211;-82
2023/10/04 03:39:54;;;;;;;2.87;2.33;;;;;;;11.28;100.00;101520.09;5011846;28;20203;-81
2023/10/04 03:42:23;;;;;;;3.97;2.60;;;;;;;11.27;100.00;101525.28;5009068;28;20255;-82
2023/10/04 03:44:48;;;;;;;3.10;2.10;;;;;;;11.26;100.00;101526.13;5011872;28;20184;-82
2023/10/04 03:47:15;;;;;;;3.80;2.10;;;;;;;11.25;100.00;101532.16;5012062;28;20219;-83
2023/10/04 03:49:40;;;;;;;3.20;2.20;;;;;;;11.25;100.00;101534.75;5017553;28;20202;-83
2023/10/04 03:52:05;;;;;;;2.30;2.00;;;;;;;11.25;100.00;101530.47;5021979;28;20191;-78
2023/10/04 03:54:31;;;;;;;2.97;2.00;;;;;;;11.24;100.00;101525.25;5049333;28;20188;-78
2023/10/04 03:56:56;;;;;;;2.70;2.03;;;;;;;11.23;100.00;101519.22;5048688;28;21084;-81
2023/10/04 03:59:22;;;;;;;3.83;2.30;;;;;;;11.24;100.00;101523.53;5015372;28;21049;-84
2023/10/04 04:01:47;;;;;;;3.60;2.33;;;;;;;11.23;100.00;101520.91;5021835;28;20215;-81
2023/10/04 04:04:17;;;;;;;3.47;2.13;;;;;;;11.22;100.00;101519.19;5017268;28;20192;-81
2023/10/04 04:06:43;;;;;;;2.93;2.10;;;;;;;11.20;100.00;101518.28;5018772;28;20237;-80
2023/10/04 04:09:09;;;;;;;3.03;2.67;;;;;;;11.16;100.00;101517.41;5016534;28;20218;-80
2023/10/04 04:11:35;;;;;;;2.77;2.30;;;;;;;11.15;100.00;101509.63;5014641;28;20581;-81
2023/10/04 04:14:01;;;;;;;2.70;2.33;;;;;;;11.16;100.00;101514.81;5012527;28;20184;-81
2023/10/04 04:16:26;;;;;;;2.83;2.10;;;;;;;11.16;100.00;101520.00;5041390;28;20199;-81
2023/10/04 04:18:54;;;;;;;2.07;1.87;;;;;;;11.15;100.00;101523.44;5015646;28;20200;-83
2023/10/04 04:21:20;;;;;;;3.47;2.23;;;;;;;11.13;100.00;101517.38;5014734;28;20431;-78
2023/10/04 04:23:46;;;;;;;3.13;2.20;;;;;;;11.10;100.00;101527.72;5013012;28;20267;-83
2023/10/04 04:26:11;;;;;;;2.53;2.33;;;;;;;11.06;100.00;101515.59;5015150;28;20318;-83
2023/10/04 04:28:37;;;;;;;2.47;2.23;;;;;;;11.02;100.00;101509.53;5014546;28;20244;-83
2023/10/04 04:31:14;;;;;;;2.57;1.90;;;;;;;11.00;100.00;101518.13;5020293;28;20228;-82
2023/10/04 04:33:40;;;;;;;2.60;2.20;;;;;;;11.00;100.00;101518.13;5014899;28;20219;-83
2023/10/04 04:36:09;;;;;;;2.93;1.90;;;;;;;11.00;100.00;101512.94;5012866;28;20217;-81
2023/10/04 04:38:38;;;;;;;2.80;2.13;;;;;;;11.00;100.00;101510.34;5020027;28;20197;-82
2023/10/04 04:41:11;;;;;;;3.77;2.27;;;;;;;11.00;100.00;101518.13;5013252;28;20689;-82
2023/10/04 04:43:37;;;;;;;3.13;2.43;;;;;;;10.98;100.00;101518.97;5009126;28;20249;-81
2023/10/04 04:46:12;;;;;;;2.50;2.20;;;;;;;10.96;100.00;101518.13;5014054;28;20204;-80
2023/10/04 04:48:38;;;;;;;2.53;2.13;;;;;;;10.93;100.00;101512.91;5013559;28;20219;-81
2023/10/04 04:51:12;;;;;;;2.87;2.37;;;;;;;10.90;100.00;101518.03;5013094;28;20217;-84
2023/10/04 04:53:42;;;;;;;3.83;2.30;;;;;;;10.89;100.00;101518.03;5016860;28;20199;-80
2023/10/04 04:56:12;;;;;;;3.47;2.27;;;;;;;10.87;100.00;101512.84;5017613;28;20314;-83
2023/10/04 04:58:38;;;;;;;2.70;2.00;;;;;;;10.86;100.00;101515.41;5015550;28;20276;-82
2023/10/04 05:01:07;;;;;;;3.23;2.33;;;;;;;10.86;100.00;101526.63;5018577;28;20298;-80
2023/10/04 05:03:34;;;;;;;4.03;2.23;;;;;;;10.84;100.00;101538.69;5019724;28;20190;-81
2023/10/04 05:05:59;;;;;;;2.70;2.10;;;;;;;10.81;100.00;101536.94;5018712;28;20231;-81
2023/10/04 05:08:25;;;;;;;2.77;2.47;;;;;;;10.78;100.00;101531.72;5022504;28;20242;-82
2023/10/04 05:10:51;;;;;;;2.70;2.00;;;;;;;10.76;100.00;101522.22;5015573;28;20207;-85
2023/10/04 05:13:21;;;;;;;2.87;1.83;;;;;;;10.72;100.00;101526.50;5019826;28;20198;-82
2023/10/04 05:15:49;;;;;;;2.50;2.00;;;;;;;10.71;100.00;101534.25;5019946;28;20195;-80
2023/10/04 05:18:16;;;;;;;3.10;2.30;;;;;;;10.70;100.00;101532.50;5023407;28;20268;-83
2023/10/04 05:20:50;;;;;;;3.40;2.10;;;;;;;10.71;100.00;101532.53;5017997;28;20215;-81
2023/10/04 05:23:17;;;;;;;4.43;2.80;;;;;;;10.70;100.00;101532.50;5013864;28;20195;-82
2023/10/04 05:25:42;;;;;;;3.73;2.40;;;;;;;10.71;100.00;101529.94;5012948;28;20671;-82
2023/10/04 05:28:12;;;;;;;4.60;3.20;;;;;;;10.73;100.00;101529.97;5012911;28;20218;-83
2023/10/04 05:30:39;;;;;;;3.60;2.17;;;;;;;10.75;100.00;101538.63;5014653;28;20374;-81
2023/10/04 05:33:08;;;;;;;2.33;2.00;;;;;;;10.75;100.00;101529.09;5014442;28;20191;-79
2023/10/04 05:35:37;;;;;;;3.47;2.00;;;;;;;10.78;100.00;101530.88;5017256;28;20199;-80
2023/10/04 05:38:04;;;;;;;3.20;2.13;;;;;;;10.80;100.00;101531.78;5040676;28;20197;-80
2023/10/04 05:40:38;;;;;;;3.40;2.40;;;;;;;10.82;100.00;101533.50;5012621;28;20208;-81
2023/10/04 05:43:04;;;;;;;4.67;2.87;;;;;;;10.88;100.00;101535.28;5016903;28;20191;-82
2023/10/04 05:45:29;;;;;;;4.57;2.73;;;;;;;10.90;100.00;101541.34;5024501;28;20249;-84
2023/10/04 05:47:55;;;;;;;5.63;2.77;;;;;;;10.96;100.00;101540.53;5020224;28;20738;-81
2023/10/04 05:50:22;;;;;;;3.57;2.53;;;;;;;11.02;100.00;101537.13;5018208;28;20208;-81
2023/10/04 05:52:52;;;;;;;3.17;2.57;;;;;;;11.07;100.00;101535.47;5022351;28;20230;-79
2023/10/04 05:55:18;;;;;;;2.93;2.20;;;;;;;11.12;100.00;101533.78;5023582;28;20203;-80
2023/10/04 05:57:47;;;;;;;2.43;2.23;;;;;;;11.17;100.00;101533.84;5032151;28;20307;-79
2023/10/04 06:00:33;;;;;;;3.33;2.60;;;;;;;11.22;100.00;101540.78;5043621;28;20310;-78
2023/10/04 06:03:01;;;;;;;3.43;2.30;;;;;;;11.28;100.00;101539.97;5039339;28;20190;-81
2023/10/04 06:05:27;;;;;;;2.83;2.07;;;;;;;11.34;100.00;101544.31;5019448;28;20727;-80
2023/10/04 06:07:55;;;;;;;3.23;2.23;;;;;;;11.43;100.00;101542.69;5012488;28;20215;-81
2023/10/04 06:10:22;;;;;;;4.33;2.67;;;;;;;11.51;100.00;101541.84;5015673;28;20214;-82
2023/10/04 06:12:48;;;;;;;3.30;2.30;;;;;;;11.57;100.00;101542.75;5014798;28;20199;-82
2023/10/04 06:15:17;;;;;;;2.53;2.20;;;;;;;11.64;100.00;101550.59;5018168;28;20203;-82
2023/10/04 06:17:50;;;;;;;2.40;2.20;;;;;;;11.70;100.00;101551.50;5016657;28;20592;-79
2023/10/04 06:20:32;;;;;;;3.53;2.27;;;;;;;11.74;100.00;101550.69;5035577;28;20783;-79
2023/10/04 06:23:06;;;;;;;3.07;2.30;;;;;;;11.81;100.00;101554.19;5046486;28;20199;-83
2023/10/04 06:25:34;;;;;;;5.73;2.43;;;;;;;11.88;100.00;101555.94;5014301;28;20270;-82
2023/10/04 06:28:01;;;;;;;5.60;2.40;;;;;;;11.93;100.00;101563.78;5027746;28;20208;-82
2023/10/04 06:30:28;;;;;;;4.80;2.03;;;;;;;12.01;100.00;101566.44;5022025;28;20205;-82
2023/10/04 06:32:55;;;;;;;3.70;2.37;;;;;;;12.06;100.00;101572.50;5020807;28;20322;-81
2023/10/04 06:35:24;;;;;;;4.57;2.47;;;;;;;12.07;100.00;101576.84;5019749;28;20663;-83
2023/10/04 06:37:52;;;;;;;4.00;2.03;;;;;;;12.11;100.00;101578.59;5021414;28;20184;-82
2023/10/04 06:40:19;;;;;;;2.30;2.00;;;;;;;12.14;100.00;101588.13;5018397;28;20700;-81
2023/10/04 06:42:49;;;;;;;4.13;2.57;;;;;;;12.19;100.00;101578.63;5021064;28;20194;-82
2023/10/04 06:45:22;;;;;;;5.00;2.43;;;;;;;12.24;100.00;101578.66;5024739;28;20624;-81
2023/10/04 06:47:49;;;;;;;2.33;1.97;;;;;;;12.28;100.00;101580.41;5035696;28;20234;-82
2023/10/04 06:50:20;;;;;;;2.73;1.77;;;;;;;12.29;100.00;101589.94;5031243;28;20222;-81
2023/10/04 06:52:50;;;;;;;3.00;2.00;;;;;;;12.31;100.00;101585.63;5018140;28;20188;-82
2023/10/04 06:55:17;;;;;;;2.63;2.20;;;;;;;12.34;100.00;101581.31;5022562;28;20196;-83
2023/10/04 06:57:44;;;;;;;2.43;1.90;;;;;;;12.42;100.00;101589.13;5029588;28;20184;-80
2023/10/04 07:00:15;;;;;;;3.20;2.40;;;;;;;12.49;100.00;101592.63;5021810;28;20231;-84
2023/10/04 07:02:53;;;;;;;2.87;2.37;;;;;;;12.55;100.00;101590.06;5023480;28;20196;-81
2023/10/04 07:05:24;;;;;;;2.47;2.23;;;;;;;12.67;100.00;101599.59;5023874;28;20222;-82
2023/10/04 07:07:54;;;;;;;3.40;2.33;;;;;;;12.75;100.00;101600.50;5024453;28;20204;-82
2023/10/04 07:10:23;;;;;;;3.93;2.20;;;;;;;12.85;100.00;101597.94;5055143;28;20313;-81
2023/10/04 07:12:54;;;;;;;2.40;2.03;;;;;;;12.93;100.00;101599.69;5014767;28;20188;-81
2023/10/04 07:15:20;;;;;;;3.07;2.57;;;;;;;13.03;100.00;101603.16;5023079;28;20698;-82
2023/10/04 07:17:49;;;;;;;4.23;2.43;;;;;;;13.11;100.00;101608.38;5017698;28;20181;-82
2023/10/04 07:20:16;;;;;;;5.93;2.30;;;;;;;13.22;100.00;101608.41;5020990;28;20212;-81
2023/10/04 07:22:45;;;;;;;3.10;2.00;;;;;;;13.32;100.00;101610.16;5026696;28;20193;-81
2023/10/04 07:25:12;;;;;;;2.17;1.97;;;;;;;13.45;100.00;101608.47;5022005;28;20188;-83
2023/10/04 07:27:42;;;;;;;3.13;2.03;;;;;;;13.62;100.00;101611.06;5020308;28;20557;-80
2023/10/04 07:30:12;;;;;;;2.73;2.13;;;;;;;13.76;100.00;101613.66;5017676;28;20851;-83
2023/10/04 07:32:37;;;;;;;2.60;2.37;;;;;;;13.88;100.00;101615.34;5016033;28;20188;-81
2023/10/04 07:35:06;;;;;;;3.87;2.27;;;;;;;13.98;100.00;101611.88;5029136;28;20190;-82
2023/10/04 07:37:31;;;;;;;3.10;2.00;;;;;;;14.09;100.00;101616.19;5023884;28;20180;-84
2023/10/04 07:39:57;;;;;;;2.30;1.97;;;;;;;14.20;100.00;101619.63;5028429;28;20215;-83
2023/10/04 07:42:23;;;;;;;2.13;1.80;;;;;;;14.28;100.00;101617.00;5029024;28;20539;-84
2023/10/04 07:44:48;;;;;;;3.10;2.10;;;;;;;14.32;100.00;101616.97;5021629;28;20219;-84
2023/10/04 07:47:14;;;;;;;2.50;2.07;;;;;;;14.42;100.00;101620.44;5034882;28;20182;-84
2023/10/04 07:49:39;;;;;;;3.13;2.20;;;;;;;14.49;100.00;101616.06;5025821;28;20206;-83
2023/10/04 07:52:04;;;;;;;2.90;2.30;;;;;;;14.55;100.00;101615.16;5020405;28;20243;-83
2023/10/04 07:54:31;;;;;;;4.80;2.50;;;;;;;14.61;100.00;101620.38;5025252;28;20190;-83
2023/10/04 07:56:56;;;;;;;3.27;2.30;;;;;;;14.71;100.00;101623.81;5022517;28;20183;-84
2023/10/04 07:59:22;;;;;;;3.03;2.23;;;;;;;14.83;100.00;101628.97;5017028;28;20279;-84
2023/10/04 08:01:47;;;;;;;3.37;2.07;;;;;;;14.92;100.00;101630.66;5021407;28;20204;-83
2023/10/04 08:04:12;;;;;;;3.77;2.80;;;;;;;14.99;100.00;101631.50;5028331;28;20831;-84
2023/10/04 08:06:41;;;;;;;3.60;2.20;;;;;;;15.10;100.00;101634.91;5023819;28;20218;-83
2023/10/04 08:09:06;;;;;;;3.40;2.20;;;;;;;15.24;100.00;101630.47;5029206;28;20336;-81
2023/10/04 08:11:35;;;;;;;4.17;2.27;;;;;;;15.31;100.00;101635.66;5035999;28;20215;-83
2023/10/04 08:14:07;;;;;;;2.97;2.03;;;;;;;15.33;100.00;101628.69;5031422;28;20286;-81
2023/10/04 08:16:35;;;;;;;4.07;2.27;;;;;;;15.45;100.00;101633.78;5022913;28;20188;-81
2023/10/04 08:19:03;;;;;;;2.70;2.30;;;;;;;15.49;100.00;101629.41;5024563;28;20188;-82
2023/10/04 08:21:29;;;;;;;4.47;2.30;;;;;;;15.60;100.00;101630.19;5028674;28;20202;-80
2023/10/04 08:23:55;;;;;;;3.50;2.40;;;;;;;15.71;100.00;101632.72;5022451;28;20182;-84
2023/10/04 08:26:22;;;;;;;3.10;2.10;;;;;;;15.74;100.00;101643.13;5018435;28;20180;-83
2023/10/04 08:28:48;;;;;;;4.00;2.40;;;;;;;15.84;100.00;101642.16;5020975;28;20211;-83
2023/10/04 08:31:16;;;;;;;2.70;2.00;;;;;;;15.97;100.00;101631.63;5018129;28;20209;-83
2023/10/04 08:33:43;;;;;;;3.17;2.40;;;;;;;16.07;100.00;101632.41;5026015;28;20803;-85
2023/10/04 08:36:13;;;;;;;4.13;2.30;;;;;;;16.13;100.00;101620.13;5058370;28;20190;-83
2023/10/04 08:38:41;;;;;;;4.57;2.77;;;;;;;16.18;100.00;101625.34;5030011;28;20195;-82
2023/10/04 08:41:06;;;;;;;5.63;2.90;;;;;;;16.28;100.00;101624.34;5031210;28;20233;-83
2023/10/04 08:43:32;;;;;;;3.80;2.30;;;;;;;16.35;100.00;101613.81;5026817;28;20283;-85
2023/10/04 08:45:58;;;;;;;2.90;2.40;;;;;;;16.41;100.00;101611.13;5030254;28;20833;-81
2023/10/04 08:48:26;;;;;;;3.53;2.67;;;;;;;16.49;100.00;101613.66;5030795;28;20246;-84
2023/10/04 08:51:03;;;;;;;3.73;2.30;;;;;;;16.59;100.00;101610.03;5031236;28;20205;-82
2023/10/04 08:53:47;;;;;;;3.77;2.63;;;;;;;16.64;100.00;101615.22;5025145;28;20241;-83
2023/10/04 08:56:17;;;;;;;2.73;2.10;;;;;;;16.67;100.00;101613.44;5022922;28;20195;-83
2023/10/04 08:58:44;;;;;;;3.30;2.50;;;;;;;16.74;100.00;101607.22;5034477;28;20188;-84
2023/10/04 09:01:13;;;;;;;2.37;2.00;;;;;;;16.79;100.00;101603.69;5028507;28;20232;-83
2023/10/04 09:03:40;;;;;;;4.93;2.80;;;;;;;16.79;100.00;101609.75;5026348;28;20182;-82
2023/10/04 09:06:10;;;;;;;3.97;2.63;;;;;;;16.78;100.00;101610.66;5025673;28;20213;-82
2023/10/04 09:08:37;;;;;;;4.70;2.80;;;;;;;16.85;100.00;101601.84;5028044;28;20273;-83
2023/10/04 09:11:10;;;;;;;5.37;2.90;;;;;;;16.87;100.00;101604.41;5025580;28;20208;-81
2023/10/04 09:13:52;;;;;;;3.37;2.37;;;;;;;17.04;100.00;101602.47;5031140;28;20206;-83
2023/10/04 09:16:26;;;;;;;4.10;2.80;;;;;;;17.14;100.00;101599.72;5032993;28;20221;-83
2023/10/04 09:19:17;;;;;;;4.47;2.33;;;;;;;17.26;100.00;101601.25;5022740;28;20189;-84
2023/10/04 09:21:44;;;;;;;3.43;2.10;;;;;;;17.30;99.23;101600.34;5025518;28;20292;-82
2023/10/04 09:24:17;;;;;;;5.00;2.20;;;;;;;17.32;98.90;101598.56;5034180;28;20260;-82
2023/10/04 09:26:48;;;;;;;4.37;2.60;;;;;;;17.34;98.96;101597.63;5033272;28;20354;-82
2023/10/04 09:29:15;;;;;;;4.03;2.17;;;;;;;17.38;98.43;101590.63;5027293;28;20218;-83
2023/10/04 09:31:53;;;;;;;4.13;2.70;;;;;;;17.32;97.40;101594.19;5025979;28;20960;-83
2023/10/04 09:34:19;;;;;;;3.30;2.40;;;;;;;17.41;97.51;101595.78;5034553;28;20241;-82
2023/10/04 09:36:45;;;;;;;5.63;2.60;;;;;;;17.51;97.47;101586.91;5030127;28;20191;-82
2023/10/04 09:39:13;;;;;;;4.00;2.40;;;;;;;17.58;97.52;101587.66;5026704;28;20709;-80
2023/10/04 09:41:41;;;;;;;4.87;2.43;;;;;;;17.68;96.15;101591.00;5021171;28;20207;-81
2023/10/04 09:44:29;;;;;;;5.57;2.20;;;;;;;17.63;96.11;101590.19;5023354;28;20675;-82
2023/10/04 09:47:00;;;;;;;9.23;3.27;;;;;;;17.68;96.25;101591.00;5023363;28;20252;-82
2023/10/04 09:49:37;;;;;;;3.53;2.10;;;;;;;17.79;94.85;101590.78;5019619;28;20236;-80
2023/10/04 09:52:14;;;;;;;3.53;1.83;;;;;;;17.74;93.50;101590.00;5017914;28;20192;-82
2023/10/04 09:54:40;;;;;;;4.13;1.90;;;;;;;17.81;94.04;101592.50;5023033;28;20187;-81
2023/10/04 09:57:08;;;;;;;4.83;2.43;;;;;;;17.71;92.02;101592.69;5014135;28;20287;-83
2023/10/04 09:59:37;;;;;;;4.23;2.10;;;;;;;17.72;93.95;101595.25;5024622;28;20200;-83
2023/10/04 10:02:07;;;;;;;2.90;1.87;;;;;;;17.81;93.69;101584.63;5028079;28;20266;-81
2023/10/04 10:04:40;;;;;;;2.83;1.80;;;;;;;17.80;93.15;101582.91;5033767;28;20746;-82
2023/10/04 10:07:20;;;;;;;2.57;1.93;;;;;;;18.01;93.02;101582.56;5025894;28;20273;-83
2023/10/04 10:10:04;;;;;;;2.47;1.60;;;;;;;18.10;92.40;101585.88;5017745;28;20212;-81
2023/10/04 10:12:32;;;;;;;4.07;2.47;;;;;;;17.91;92.40;101580.09;5013270;28;20695;-84
2023/10/04 10:15:01;;;;;;;4.17;2.10;;;;;;;17.78;91.10;101587.31;5022461;28;20202;-81
2023/10/04 10:17:27;;;;;;;4.13;2.20;;;;;;;18.00;91.75;101586.91;5019295;28;20278;-81
2023/10/04 10:19:55;;;;;;;4.83;1.90;;;;;;;17.96;90.65;101591.31;5041581;28;20167;-80
2023/10/04 10:22:20;;;;;;;5.17;2.23;;;;;;;17.88;90.83;101593.25;5038246;28;20618;-81
2023/10/04 10:25:10;;;;;;;4.63;2.17;;;;;;;18.11;90.69;101592.84;5028606;28;20187;-82
2023/10/04 10:27:36;;;;;;;4.03;2.10;;;;;;;18.25;90.67;101589.91;5052311;28;20222;-79
2023/10/04 10:30:07;;;;;;;2.60;2.00;;;;;;;18.31;90.90;101588.06;5024299;28;20242;-81
2023/10/04 10:32:33;;;;;;;3.03;1.60;;;;;;;18.30;91.04;101587.22;5020998;28;20194;-80
2023/10/04 10:35:04;;;;;;;2.83;1.90;;;;;;;18.38;90.52;101587.91;5023630;28;20241;-81
2023/10/04 10:37:35;;;;;;;4.63;2.10;;;;;;;18.35;90.41;101584.50;5022521;28;20182;-80
2023/10/04 10:40:08;;;;;;;4.17;2.00;;;;;;;18.43;90.59;101582.56;5014729;28;21055;-80
2023/10/04 10:43:08;;;;;;;2.90;2.00;;;;;;;18.62;89.47;101574.31;5020689;28;20193;-82
2023/10/04 10:45:34;;;;;;;3.97;1.57;;;;;;;18.71;89.32;101572.34;5018921;28;20180;-80
2023/10/04 10:48:01;;;;;;;3.30;1.67;;;;;;;18.80;88.11;101567.78;5024188;28;20233;-82
2023/10/04 10:50:34;;;;;;;5.03;1.77;;;;;;;18.83;87.68;101560.69;5016502;28;20296;-82
2023/10/04 10:53:06;;;;;;;4.73;1.67;;;;;;;18.67;84.23;101564.59;5020143;28;20194;-81
2023/10/04 10:55:35;;;;;;;3.37;1.60;;;;;;;18.55;84.95;101570.97;5014023;28;20676;-83
2023/10/04 10:58:01;;;;;;;4.03;1.97;;;;;;;18.36;86.32;101568.75;5021146;28;20195;-81
2023/10/04 11:00:32;;;;;;;3.00;1.77;;;;;;;18.23;86.11;101568.13;5021393;28;20203;-81
2023/10/04 11:02:58;;;;;;;3.27;1.57;;;;;;;18.13;86.59;101567.47;5015055;28;20195;-82
2023/10/04 11:05:25;;;;;;;2.87;1.80;;;;;;;17.89;85.63;101571.41;5016753;28;20253;-81
2023/10/04 11:07:53;;;;;;;3.93;1.73;;;;;;;18.12;85.88;101565.75;5023217;28;20203;-82
2023/10/04 11:10:20;;;;;;;1.83;1.30;;;;;;;18.31;85.51;101572.34;5019430;28;20211;-80
2023/10/04 11:12:49;;;;;;;3.23;1.70;;;;;;;18.44;84.48;101573.81;5022040;28;20187;-83
2023/10/04 11:15:20;;;;;;;2.53;1.57;;;;;;;18.49;84.78;101569.34;5023040;28;20201;-80
2023/10/04 11:17:46;;;;;;;1.90;1.43;;;;;;;18.58;84.99;101568.28;5015104;28;20199;-83
2023/10/04 11:20:12;;;;;;;2.53;1.37;;;;;;;18.62;84.20;101563.84;5017306;28;20211;-81
2023/10/04 11:22:43;;;;;;;2.23;1.47;;;;;;;18.81;83.61;101562.53;5026729;28;20187;-81
2023/10/04 11:25:11;;;;;;;2.33;1.30;;;;;;;18.87;82.98;101549.25;5018047;28;20241;-83